sensor_id;sensor_type;location;lat;lon;timestamp;P1;durP1;ratioP1;P2;durP2;ratioP2
62179;SDS011;48172;53.374;10.722;2023-01-19T00:00:27;5.68;;;5.18;;
62179;SDS011;48172;53.374;10.722;2023-01-19T00:02:54;5.50;;;5.00;;
62179;SDS011;48172;53.374;10.722;2023-01-19T00:05:21;5.53;;;5.03;;
62179;SDS011;48172;53.374;10.722;2023-01-19T00:07:48;5.45;;;4.95;;
62179;SDS011;48172;53.374;10.722;2023-01-19T00:10:14;5.50;;;5.00;;
62179;SDS011;48172;53.374;10.722;2023-01-19T00:12:41;5.00;;;4.50;;
62179;SDS011;48172;53.374;10.722;2023-01-19T00:15:08;5.70;;;5.20;;
62179;SDS011;48172;53.374;10.722;2023-01-19T00:17:35;5.57;;;5.03;;
62179;SDS011;48172;53.374;10.722;2023-01-19T00:20:02;4.63;;;4.22;;
62179;SDS011;48172;53.374;10.722;2023-01-19T00:22:29;5.15;;;4.65;;
62179;SDS011;48172;53.374;10.722;2023-01-19T00:24:55;5.28;;;4.78;;
62179;SDS011;48172;53.374;10.722;2023-01-19T00:27:22;4.82;;;4.38;;
62179;SDS011;48172;53.374;10.722;2023-01-19T00:29:50;4.60;;;4.20;;
62179;SDS011;48172;53.374;10.722;2023-01-19T00:32:16;4.90;;;4.50;;
62179;SDS011;48172;53.374;10.722;2023-01-19T00:34:43;5.28;;;4.78;;
62179;SDS011;48172;53.374;10.722;2023-01-19T00:37:15;5.00;;;4.60;;
62179;SDS011;48172;53.374;10.722;2023-01-19T00:39:43;5.20;;;4.70;;
62179;SDS011;48172;53.374;10.722;2023-01-19T00:42:10;4.95;;;4.50;;
62179;SDS011;48172;53.374;10.722;2023-01-19T00:44:56;5.15;;;4.75;;
62179;SDS011;48172;53.374;10.722;2023-01-19T00:47:23;5.15;;;4.47;;
62179;SDS011;48172;53.374;10.722;2023-01-19T00:49:50;4.78;;;4.28;;
62179;SDS011;48172;53.374;10.722;2023-01-19T00:52:16;4.40;;;4.00;;
62179;SDS011;48172;53.374;10.722;2023-01-19T00:54:43;4.65;;;4.20;;
62179;SDS011;48172;53.374;10.722;2023-01-19T00:57:09;4.50;;;4.10;;
62179;SDS011;48172;53.374;10.722;2023-01-19T00:59:36;4.45;;;4.05;;
62179;SDS011;48172;53.374;10.722;2023-01-19T01:02:02;4.78;;;4.38;;
62179;SDS011;48172;53.374;10.722;2023-01-19T01:04:29;4.88;;;3.90;;
62179;SDS011;48172;53.374;10.722;2023-01-19T01:06:56;4.13;;;3.83;;
62179;SDS011;48172;53.374;10.722;2023-01-19T01:09:22;3.83;;;3.53;;
62179;SDS011;48172;53.374;10.722;2023-01-19T01:11:49;4.00;;;3.60;;
62179;SDS011;48172;53.374;10.722;2023-01-19T01:14:16;4.72;;;4.25;;
62179;SDS011;48172;53.374;10.722;2023-01-19T01:16:43;4.22;;;3.83;;
62179;SDS011;48172;53.374;10.722;2023-01-19T01:19:10;4.10;;;3.70;;
62179;SDS011;48172;53.374;10.722;2023-01-19T01:21:36;4.32;;;3.92;;
62179;SDS011;48172;53.374;10.722;2023-01-19T01:24:03;4.68;;;4.28;;
62179;SDS011;48172;53.374;10.722;2023-01-19T01:26:30;3.65;;;3.35;;
62179;SDS011;48172;53.374;10.722;2023-01-19T01:28:56;4.78;;;3.95;;
62179;SDS011;48172;53.374;10.722;2023-01-19T01:31:23;4.25;;;3.85;;
62179;SDS011;48172;53.374;10.722;2023-01-19T01:33:50;4.32;;;3.92;;
62179;SDS011;48172;53.374;10.722;2023-01-19T01:36:16;5.13;;;3.95;;
62179;SDS011;48172;53.374;10.722;2023-01-19T01:38:44;3.88;;;3.58;;
62179;SDS011;48172;53.374;10.722;2023-01-19T01:41:10;3.83;;;3.50;;
62179;SDS011;48172;53.374;10.722;2023-01-19T01:44:41;4.32;;;3.40;;
62179;SDS011;48172;53.374;10.722;2023-01-19T01:46:50;3.58;;;3.28;;
62179;SDS011;48172;53.374;10.722;2023-01-19T01:49:17;3.90;;;3.53;;
62179;SDS011;48172;53.374;10.722;2023-01-19T01:51:45;3.60;;;3.30;;
62179;SDS011;48172;53.374;10.722;2023-01-19T01:54:18;3.67;;;3.30;;
62179;SDS011;48172;53.374;10.722;2023-01-19T01:56:49;3.63;;;3.33;;
62179;SDS011;48172;53.374;10.722;2023-01-19T01:59:24;3.25;;;2.95;;
62179;SDS011;48172;53.374;10.722;2023-01-19T02:01:56;3.40;;;3.10;;
62179;SDS011;48172;53.374;10.722;2023-01-19T02:04:54;3.63;;;3.30;;
62179;SDS011;48172;53.374;10.722;2023-01-19T02:07:37;4.03;;;3.33;;
62179;SDS011;48172;53.374;10.722;2023-01-19T02:10:25;3.78;;;3.47;;
62179;SDS011;48172;53.374;10.722;2023-01-19T02:13:11;3.63;;;3.30;;
62179;SDS011;48172;53.374;10.722;2023-01-19T02:15:49;3.58;;;3.25;;
62179;SDS011;48172;53.374;10.722;2023-01-19T02:18:18;3.50;;;3.20;;
62179;SDS011;48172;53.374;10.722;2023-01-19T02:20:49;3.40;;;3.10;;
62179;SDS011;48172;53.374;10.722;2023-01-19T02:23:37;3.60;;;3.30;;
62179;SDS011;48172;53.374;10.722;2023-01-19T02:26:12;3.35;;;2.90;;
62179;SDS011;48172;53.374;10.722;2023-01-19T02:28:43;3.17;;;2.88;;
62179;SDS011;48172;53.374;10.722;2023-01-19T02:31:13;3.50;;;3.20;;
62179;SDS011;48172;53.374;10.722;2023-01-19T02:33:40;3.10;;;2.80;;
62179;SDS011;48172;53.374;10.722;2023-01-19T02:36:08;3.13;;;2.83;;
62179;SDS011;48172;53.374;10.722;2023-01-19T02:38:36;3.45;;;3.15;;
62179;SDS011;48172;53.374;10.722;2023-01-19T02:41:05;3.30;;;3.00;;
62179;SDS011;48172;53.374;10.722;2023-01-19T02:43:33;3.20;;;2.90;;
62179;SDS011;48172;53.374;10.722;2023-01-19T02:46:01;2.90;;;2.60;;
62179;SDS011;48172;53.374;10.722;2023-01-19T02:48:28;3.13;;;2.83;;
62179;SDS011;48172;53.374;10.722;2023-01-19T02:50:56;3.13;;;2.83;;
62179;SDS011;48172;53.374;10.722;2023-01-19T02:56:02;3.35;;;3.05;;
62179;SDS011;48172;53.374;10.722;2023-01-19T02:59:06;2.72;;;2.50;;
62179;SDS011;48172;53.374;10.722;2023-01-19T03:04:26;3.17;;;2.72;;
62179;SDS011;48172;53.374;10.722;2023-01-19T03:06:57;2.97;;;2.42;;
62179;SDS011;48172;53.374;10.722;2023-01-19T03:15:19;3.17;;;2.70;;
62179;SDS011;48172;53.374;10.722;2023-01-19T03:17:55;2.78;;;2.58;;
62179;SDS011;48172;53.374;10.722;2023-01-19T03:20:25;3.03;;;2.70;;
62179;SDS011;48172;53.374;10.722;2023-01-19T03:22:55;2.97;;;2.47;;
62179;SDS011;48172;53.374;10.722;2023-01-19T03:25:28;3.25;;;2.88;;
62179;SDS011;48172;53.374;10.722;2023-01-19T03:27:59;3.03;;;2.75;;
62179;SDS011;48172;53.374;10.722;2023-01-19T03:30:29;2.78;;;2.28;;
62179;SDS011;48172;53.374;10.722;2023-01-19T03:33:04;2.47;;;2.28;;
62179;SDS011;48172;53.374;10.722;2023-01-19T03:35:35;2.92;;;2.63;;
62179;SDS011;48172;53.374;10.722;2023-01-19T03:38:08;2.73;;;2.20;;
62179;SDS011;48172;53.374;10.722;2023-01-19T03:43:06;2.30;;;2.10;;
62179;SDS011;48172;53.374;10.722;2023-01-19T03:45:35;2.50;;;2.30;;
62179;SDS011;48172;53.374;10.722;2023-01-19T03:48:04;2.80;;;2.40;;
62179;SDS011;48172;53.374;10.722;2023-01-19T03:50:31;2.42;;;2.15;;
62179;SDS011;48172;53.374;10.722;2023-01-19T03:55:36;3.30;;;2.47;;
62179;SDS011;48172;53.374;10.722;2023-01-19T03:58:05;2.25;;;2.00;;
62179;SDS011;48172;53.374;10.722;2023-01-19T04:00:33;3.83;;;2.53;;
62179;SDS011;48172;53.374;10.722;2023-01-19T04:03:02;2.60;;;2.28;;
62179;SDS011;48172;53.374;10.722;2023-01-19T04:05:30;2.38;;;2.08;;
62179;SDS011;48172;53.374;10.722;2023-01-19T04:07:57;2.53;;;2.33;;
62179;SDS011;48172;53.374;10.722;2023-01-19T04:10:24;2.17;;;1.98;;
62179;SDS011;48172;53.374;10.722;2023-01-19T04:12:55;2.53;;;2.20;;
62179;SDS011;48172;53.374;10.722;2023-01-19T04:15:24;2.47;;;2.05;;
62179;SDS011;48172;53.374;10.722;2023-01-19T04:17:51;2.40;;;2.10;;
62179;SDS011;48172;53.374;10.722;2023-01-19T04:20:18;2.30;;;2.10;;
62179;SDS011;48172;53.374;10.722;2023-01-19T04:22:45;2.83;;;2.35;;
62179;SDS011;48172;53.374;10.722;2023-01-19T04:25:11;2.30;;;2.10;;
62179;SDS011;48172;53.374;10.722;2023-01-19T04:27:38;2.40;;;2.20;;
62179;SDS011;48172;53.374;10.722;2023-01-19T04:30:05;2.33;;;2.13;;
62179;SDS011;48172;53.374;10.722;2023-01-19T04:32:32;2.28;;;2.08;;
62179;SDS011;48172;53.374;10.722;2023-01-19T04:34:58;2.53;;;2.08;;
62179;SDS011;48172;53.374;10.722;2023-01-19T04:37:25;2.90;;;2.25;;
62179;SDS011;48172;53.374;10.722;2023-01-19T04:39:51;2.13;;;1.92;;
62179;SDS011;48172;53.374;10.722;2023-01-19T04:42:18;2.42;;;2.22;;
62179;SDS011;48172;53.374;10.722;2023-01-19T04:44:44;2.90;;;1.90;;
62179;SDS011;48172;53.374;10.722;2023-01-19T04:47:11;2.08;;;1.90;;
62179;SDS011;48172;53.374;10.722;2023-01-19T04:49:38;2.13;;;1.90;;
62179;SDS011;48172;53.374;10.722;2023-01-19T04:52:05;2.58;;;2.30;;
62179;SDS011;48172;53.374;10.722;2023-01-19T04:54:31;2.55;;;2.20;;
62179;SDS011;48172;53.374;10.722;2023-01-19T04:56:58;2.10;;;1.80;;
62179;SDS011;48172;53.374;10.722;2023-01-19T04:59:25;2.15;;;1.95;;
62179;SDS011;48172;53.374;10.722;2023-01-19T05:01:51;2.60;;;2.22;;
62179;SDS011;48172;53.374;10.722;2023-01-19T05:04:18;2.03;;;1.83;;
62179;SDS011;48172;53.374;10.722;2023-01-19T05:06:45;2.15;;;1.80;;
62179;SDS011;48172;53.374;10.722;2023-01-19T05:09:11;2.85;;;2.00;;
62179;SDS011;48172;53.374;10.722;2023-01-19T05:11:40;2.25;;;2.03;;
62179;SDS011;48172;53.374;10.722;2023-01-19T05:14:06;1.95;;;1.75;;
62179;SDS011;48172;53.374;10.722;2023-01-19T05:16:33;2.25;;;1.63;;
62179;SDS011;48172;53.374;10.722;2023-01-19T05:19:00;2.58;;;1.77;;
62179;SDS011;48172;53.374;10.722;2023-01-19T05:21:26;2.38;;;2.00;;
62179;SDS011;48172;53.374;10.722;2023-01-19T05:23:53;3.05;;;2.20;;
62179;SDS011;48172;53.374;10.722;2023-01-19T05:26:20;2.38;;;1.88;;
62179;SDS011;48172;53.374;10.722;2023-01-19T05:28:46;2.42;;;2.22;;
62179;SDS011;48172;53.374;10.722;2023-01-19T05:31:13;2.00;;;1.80;;
62179;SDS011;48172;53.374;10.722;2023-01-19T05:33:39;2.25;;;2.05;;
62179;SDS011;48172;53.374;10.722;2023-01-19T05:36:06;2.38;;;1.80;;
62179;SDS011;48172;53.374;10.722;2023-01-19T05:38:33;2.40;;;1.90;;
62179;SDS011;48172;53.374;10.722;2023-01-19T05:41:01;2.17;;;1.88;;
62179;SDS011;48172;53.374;10.722;2023-01-19T05:43:27;1.80;;;1.70;;
62179;SDS011;48172;53.374;10.722;2023-01-19T05:45:54;1.83;;;1.55;;
62179;SDS011;48172;53.374;10.722;2023-01-19T05:48:22;1.92;;;1.80;;
62179;SDS011;48172;53.374;10.722;2023-01-19T05:50:49;2.72;;;1.70;;
62179;SDS011;48172;53.374;10.722;2023-01-19T05:53:15;1.75;;;1.65;;
62179;SDS011;48172;53.374;10.722;2023-01-19T05:55:42;3.25;;;2.28;;
62179;SDS011;48172;53.374;10.722;2023-01-19T05:58:09;2.65;;;1.90;;
62179;SDS011;48172;53.374;10.722;2023-01-19T06:00:36;2.42;;;2.17;;
62179;SDS011;48172;53.374;10.722;2023-01-19T06:03:02;1.85;;;1.75;;
62179;SDS011;48172;53.374;10.722;2023-01-19T06:05:31;2.28;;;1.75;;
62179;SDS011;48172;53.374;10.722;2023-01-19T06:07:58;2.20;;;2.00;;
62179;SDS011;48172;53.374;10.722;2023-01-19T06:10:24;2.58;;;1.98;;
62179;SDS011;48172;53.374;10.722;2023-01-19T06:12:51;1.80;;;1.45;;
62179;SDS011;48172;53.374;10.722;2023-01-19T06:15:18;2.33;;;1.80;;
62179;SDS011;48172;53.374;10.722;2023-01-19T06:17:45;2.15;;;1.50;;
62179;SDS011;48172;53.374;10.722;2023-01-19T06:20:11;2.10;;;1.85;;
62179;SDS011;48172;53.374;10.722;2023-01-19T06:22:39;1.63;;;1.50;;
62179;SDS011;48172;53.374;10.722;2023-01-19T06:25:05;1.98;;;1.77;;
62179;SDS011;48172;53.374;10.722;2023-01-19T06:27:32;2.83;;;1.63;;
62179;SDS011;48172;53.374;10.722;2023-01-19T06:29:59;1.75;;;1.50;;
62179;SDS011;48172;53.374;10.722;2023-01-19T06:32:25;1.98;;;1.63;;
62179;SDS011;48172;53.374;10.722;2023-01-19T06:34:52;1.80;;;1.58;;
62179;SDS011;48172;53.374;10.722;2023-01-19T06:37:19;1.67;;;1.45;;
62179;SDS011;48172;53.374;10.722;2023-01-19T06:39:46;1.92;;;1.52;;
62179;SDS011;48172;53.374;10.722;2023-01-19T06:42:12;1.85;;;1.58;;
62179;SDS011;48172;53.374;10.722;2023-01-19T06:44:39;1.50;;;1.35;;
62179;SDS011;48172;53.374;10.722;2023-01-19T06:49:41;1.63;;;1.50;;
62179;SDS011;48172;53.374;10.722;2023-01-19T06:52:08;1.60;;;1.50;;
62179;SDS011;48172;53.374;10.722;2023-01-19T06:54:36;1.90;;;1.60;;
62179;SDS011;48172;53.374;10.722;2023-01-19T06:57:03;1.80;;;1.42;;
62179;SDS011;48172;53.374;10.722;2023-01-19T06:59:30;1.30;;;1.20;;
62179;SDS011;48172;53.374;10.722;2023-01-19T07:01:57;1.95;;;1.70;;
62179;SDS011;48172;53.374;10.722;2023-01-19T07:04:24;1.60;;;1.35;;
62179;SDS011;48172;53.374;10.722;2023-01-19T07:06:52;1.88;;;1.38;;
62179;SDS011;48172;53.374;10.722;2023-01-19T07:09:18;1.30;;;1.20;;
62179;SDS011;48172;53.374;10.722;2023-01-19T07:11:45;1.85;;;1.25;;
62179;SDS011;48172;53.374;10.722;2023-01-19T07:14:13;1.48;;;1.38;;
62179;SDS011;48172;53.374;10.722;2023-01-19T07:16:40;1.63;;;1.40;;
62179;SDS011;48172;53.374;10.722;2023-01-19T07:19:08;2.00;;;1.30;;
62179;SDS011;48172;53.374;10.722;2023-01-19T07:21:36;1.77;;;1.20;;
62179;SDS011;48172;53.374;10.722;2023-01-19T07:24:02;1.50;;;1.30;;
62179;SDS011;48172;53.374;10.722;2023-01-19T07:26:29;1.55;;;1.27;;
62179;SDS011;48172;53.374;10.722;2023-01-19T07:28:56;1.45;;;1.27;;
62179;SDS011;48172;53.374;10.722;2023-01-19T07:31:22;1.38;;;1.27;;
62179;SDS011;48172;53.374;10.722;2023-01-19T07:33:49;1.52;;;1.30;;
62179;SDS011;48172;53.374;10.722;2023-01-19T07:36:16;1.20;;;1.10;;
62179;SDS011;48172;53.374;10.722;2023-01-19T07:38:42;1.30;;;1.20;;
62179;SDS011;48172;53.374;10.722;2023-01-19T07:41:09;1.30;;;1.20;;
62179;SDS011;48172;53.374;10.722;2023-01-19T07:43:36;1.35;;;0.98;;
62179;SDS011;48172;53.374;10.722;2023-01-19T07:46:05;1.65;;;1.30;;
62179;SDS011;48172;53.374;10.722;2023-01-19T07:48:33;1.50;;;1.35;;
62179;SDS011;48172;53.374;10.722;2023-01-19T07:51:00;1.63;;;1.40;;
62179;SDS011;48172;53.374;10.722;2023-01-19T07:53:37;1.50;;;1.20;;
62179;SDS011;48172;53.374;10.722;2023-01-19T07:56:05;1.83;;;1.40;;
62179;SDS011;48172;53.374;10.722;2023-01-19T07:58:32;1.42;;;1.30;;
62179;SDS011;48172;53.374;10.722;2023-01-19T08:00:59;1.25;;;1.08;;
62179;SDS011;48172;53.374;10.722;2023-01-19T08:03:25;2.15;;;1.20;;
62179;SDS011;48172;53.374;10.722;2023-01-19T08:05:52;1.02;;;0.93;;
62179;SDS011;48172;53.374;10.722;2023-01-19T08:08:19;1.17;;;1.08;;
62179;SDS011;48172;53.374;10.722;2023-01-19T08:10:48;1.10;;;1.00;;
62179;SDS011;48172;53.374;10.722;2023-01-19T08:13:15;1.48;;;1.20;;
62179;SDS011;48172;53.374;10.722;2023-01-19T08:15:42;1.40;;;1.20;;
62179;SDS011;48172;53.374;10.722;2023-01-19T08:18:08;1.35;;;1.08;;
62179;SDS011;48172;53.374;10.722;2023-01-19T08:20:36;1.67;;;1.38;;
62179;SDS011;48172;53.374;10.722;2023-01-19T08:23:03;1.63;;;1.20;;
62179;SDS011;48172;53.374;10.722;2023-01-19T08:25:31;1.48;;;1.20;;
62179;SDS011;48172;53.374;10.722;2023-01-19T08:27:59;1.20;;;1.08;;
62179;SDS011;48172;53.374;10.722;2023-01-19T08:30:26;1.25;;;1.15;;
62179;SDS011;48172;53.374;10.722;2023-01-19T08:32:53;1.20;;;1.10;;
62179;SDS011;48172;53.374;10.722;2023-01-19T08:35:23;1.75;;;1.15;;
62179;SDS011;48172;53.374;10.722;2023-01-19T08:37:49;1.20;;;1.10;;
62179;SDS011;48172;53.374;10.722;2023-01-19T08:40:16;1.70;;;1.10;;
62179;SDS011;48172;53.374;10.722;2023-01-19T08:42:43;1.67;;;1.10;;
62179;SDS011;48172;53.374;10.722;2023-01-19T08:45:10;1.30;;;1.20;;
62179;SDS011;48172;53.374;10.722;2023-01-19T08:47:37;1.17;;;1.08;;
62179;SDS011;48172;53.374;10.722;2023-01-19T08:50:04;1.13;;;0.90;;
62179;SDS011;48172;53.374;10.722;2023-01-19T08:52:30;1.10;;;0.95;;
62179;SDS011;48172;53.374;10.722;2023-01-19T08:54:57;1.77;;;1.08;;
62179;SDS011;48172;53.374;10.722;2023-01-19T08:57:23;1.40;;;1.30;;
62179;SDS011;48172;53.374;10.722;2023-01-19T08:59:50;1.92;;;1.02;;
62179;SDS011;48172;53.374;10.722;2023-01-19T09:02:16;1.58;;;1.10;;
62179;SDS011;48172;53.374;10.722;2023-01-19T09:04:43;1.48;;;1.30;;
62179;SDS011;48172;53.374;10.722;2023-01-19T09:07:09;1.52;;;1.38;;
62179;SDS011;48172;53.374;10.722;2023-01-19T09:09:36;0.90;;;0.90;;
62179;SDS011;48172;53.374;10.722;2023-01-19T09:12:04;1.02;;;0.93;;
62179;SDS011;48172;53.374;10.722;2023-01-19T09:14:31;1.30;;;1.08;;
62179;SDS011;48172;53.374;10.722;2023-01-19T09:16:57;1.70;;;1.20;;
62179;SDS011;48172;53.374;10.722;2023-01-19T09:19:24;1.30;;;1.00;;
62179;SDS011;48172;53.374;10.722;2023-01-19T09:21:52;1.80;;;1.10;;
62179;SDS011;48172;53.374;10.722;2023-01-19T09:24:19;1.25;;;1.10;;
62179;SDS011;48172;53.374;10.722;2023-01-19T09:26:46;1.30;;;1.20;;
62179;SDS011;48172;53.374;10.722;2023-01-19T09:29:13;1.42;;;0.90;;
62179;SDS011;48172;53.374;10.722;2023-01-19T09:31:39;1.40;;;1.20;;
62179;SDS011;48172;53.374;10.722;2023-01-19T09:34:06;1.25;;;1.15;;
62179;SDS011;48172;53.374;10.722;2023-01-19T09:36:33;0.90;;;0.80;;
62179;SDS011;48172;53.374;10.722;2023-01-19T09:39:02;1.30;;;1.00;;
62179;SDS011;48172;53.374;10.722;2023-01-19T09:41:29;1.80;;;1.33;;
62179;SDS011;48172;53.374;10.722;2023-01-19T09:43:58;1.23;;;1.00;;
62179;SDS011;48172;53.374;10.722;2023-01-19T09:46:28;1.15;;;1.00;;
62179;SDS011;48172;53.374;10.722;2023-01-19T09:49:03;1.02;;;0.93;;
62179;SDS011;48172;53.374;10.722;2023-01-19T09:51:44;0.82;;;0.77;;
62179;SDS011;48172;53.374;10.722;2023-01-19T09:54:30;1.00;;;0.90;;
62179;SDS011;48172;53.374;10.722;2023-01-19T09:57:04;1.63;;;1.10;;
62179;SDS011;48172;53.374;10.722;2023-01-19T09:59:36;1.33;;;1.08;;
62179;SDS011;48172;53.374;10.722;2023-01-19T10:09:55;1.20;;;1.10;;
62179;SDS011;48172;53.374;10.722;2023-01-19T10:12:32;1.27;;;1.10;;
62179;SDS011;48172;53.374;10.722;2023-01-19T10:20:40;1.10;;;1.00;;
62179;SDS011;48172;53.374;10.722;2023-01-19T10:26:19;1.15;;;0.90;;
62179;SDS011;48172;53.374;10.722;2023-01-19T10:28:53;1.00;;;0.90;;
62179;SDS011;48172;53.374;10.722;2023-01-19T10:31:23;1.30;;;1.20;;
62179;SDS011;48172;53.374;10.722;2023-01-19T10:33:50;1.25;;;1.00;;
62179;SDS011;48172;53.374;10.722;2023-01-19T10:36:19;0.80;;;0.80;;
62179;SDS011;48172;53.374;10.722;2023-01-19T10:38:51;1.38;;;0.75;;
62179;SDS011;48172;53.374;10.722;2023-01-19T10:41:25;0.90;;;0.82;;
62179;SDS011;48172;53.374;10.722;2023-01-19T10:44:00;1.45;;;1.10;;
62179;SDS011;48172;53.374;10.722;2023-01-19T10:51:52;1.00;;;0.90;;
62179;SDS011;48172;53.374;10.722;2023-01-19T10:54:19;1.13;;;1.02;;
62179;SDS011;48172;53.374;10.722;2023-01-19T10:56:54;1.42;;;0.98;;
62179;SDS011;48172;53.374;10.722;2023-01-19T10:59:30;1.23;;;0.80;;
62179;SDS011;48172;53.374;10.722;2023-01-19T11:07:19;1.38;;;0.90;;
62179;SDS011;48172;53.374;10.722;2023-01-19T11:09:46;1.15;;;1.05;;
62179;SDS011;48172;53.374;10.722;2023-01-19T11:12:20;1.30;;;1.00;;
62179;SDS011;48172;53.374;10.722;2023-01-19T11:14:49;1.20;;;0.93;;
62179;SDS011;48172;53.374;10.722;2023-01-19T11:17:21;1.00;;;0.90;;
62179;SDS011;48172;53.374;10.722;2023-01-19T11:19:59;1.27;;;1.00;;
62179;SDS011;48172;53.374;10.722;2023-01-19T11:22:29;1.23;;;1.13;;
62179;SDS011;48172;53.374;10.722;2023-01-19T11:25:02;1.08;;;1.00;;
62179;SDS011;48172;53.374;10.722;2023-01-19T11:27:31;1.52;;;1.10;;
62179;SDS011;48172;53.374;10.722;2023-01-19T11:35:28;1.27;;;1.10;;
62179;SDS011;48172;53.374;10.722;2023-01-19T11:40:36;1.13;;;0.90;;
62179;SDS011;48172;53.374;10.722;2023-01-19T11:43:04;1.42;;;1.15;;
62179;SDS011;48172;53.374;10.722;2023-01-19T11:45:31;1.35;;;1.13;;
62179;SDS011;48172;53.374;10.722;2023-01-19T11:48:00;1.17;;;1.08;;
62179;SDS011;48172;53.374;10.722;2023-01-19T11:53:24;1.67;;;1.00;;
62179;SDS011;48172;53.374;10.722;2023-01-19T11:55:55;1.35;;;0.90;;
62179;SDS011;48172;53.374;10.722;2023-01-19T11:58:24;1.10;;;1.00;;
62179;SDS011;48172;53.374;10.722;2023-01-19T12:01:38;1.00;;;0.90;;
62179;SDS011;48172;53.374;10.722;2023-01-19T12:06:32;1.30;;;1.20;;
62179;SDS011;48172;53.374;10.722;2023-01-19T12:11:57;0.90;;;0.90;;
62179;SDS011;48172;53.374;10.722;2023-01-19T12:14:34;1.25;;;1.00;;
62179;SDS011;48172;53.374;10.722;2023-01-19T12:17:06;1.13;;;1.02;;
62179;SDS011;48172;53.374;10.722;2023-01-19T12:19:44;1.13;;;0.85;;
62179;SDS011;48172;53.374;10.722;2023-01-19T12:22:20;1.30;;;1.10;;
62179;SDS011;48172;53.374;10.722;2023-01-19T12:24:51;1.05;;;0.95;;
62179;SDS011;48172;53.374;10.722;2023-01-19T12:30:04;1.02;;;0.90;;
62179;SDS011;48172;53.374;10.722;2023-01-19T12:32:35;1.35;;;0.98;;
62179;SDS011;48172;53.374;10.722;2023-01-19T12:35:02;1.40;;;0.88;;
62179;SDS011;48172;53.374;10.722;2023-01-19T12:37:31;0.82;;;0.80;;
62179;SDS011;48172;53.374;10.722;2023-01-19T12:42:53;1.10;;;1.00;;
62179;SDS011;48172;53.374;10.722;2023-01-19T12:45:21;0.88;;;0.82;;
62179;SDS011;48172;53.374;10.722;2023-01-19T12:47:54;1.38;;;1.05;;
62179;SDS011;48172;53.374;10.722;2023-01-19T12:50:21;0.70;;;0.70;;
62179;SDS011;48172;53.374;10.722;2023-01-19T12:52:57;0.95;;;0.90;;
62179;SDS011;48172;53.374;10.722;2023-01-19T12:55:37;1.27;;;0.95;;
62179;SDS011;48172;53.374;10.722;2023-01-19T12:58:06;1.00;;;0.77;;
62179;SDS011;48172;53.374;10.722;2023-01-19T13:00:41;1.10;;;1.00;;
62179;SDS011;48172;53.374;10.722;2023-01-19T13:16:44;1.17;;;1.00;;
62179;SDS011;48172;53.374;10.722;2023-01-19T13:19:17;1.13;;;0.90;;
62179;SDS011;48172;53.374;10.722;2023-01-19T13:21:47;1.13;;;1.00;;
62179;SDS011;48172;53.374;10.722;2023-01-19T13:24:15;1.08;;;0.90;;
62179;SDS011;48172;53.374;10.722;2023-01-19T13:29:34;1.05;;;0.95;;
62179;SDS011;48172;53.374;10.722;2023-01-19T13:32:12;0.80;;;0.80;;
62179;SDS011;48172;53.374;10.722;2023-01-19T13:34:44;0.88;;;0.80;;
62179;SDS011;48172;53.374;10.722;2023-01-19T13:37:19;1.03;;;0.90;;
62179;SDS011;48172;53.374;10.722;2023-01-19T13:39:48;0.90;;;0.90;;
62179;SDS011;48172;53.374;10.722;2023-01-19T13:44:55;0.90;;;0.88;;
62179;SDS011;48172;53.374;10.722;2023-01-19T13:47:30;0.98;;;0.75;;
62179;SDS011;48172;53.374;10.722;2023-01-19T13:50:05;1.20;;;1.02;;
62179;SDS011;48172;53.374;10.722;2023-01-19T13:52:32;1.00;;;0.90;;
62179;SDS011;48172;53.374;10.722;2023-01-19T13:54:59;0.80;;;0.80;;
62179;SDS011;48172;53.374;10.722;2023-01-19T13:57:30;1.45;;;1.10;;
62179;SDS011;48172;53.374;10.722;2023-01-19T14:02:37;1.17;;;1.08;;
62179;SDS011;48172;53.374;10.722;2023-01-19T14:05:39;1.10;;;1.00;;
62179;SDS011;48172;53.374;10.722;2023-01-19T14:10:39;1.23;;;0.95;;
62179;SDS011;48172;53.374;10.722;2023-01-19T14:15:45;1.17;;;0.90;;
62179;SDS011;48172;53.374;10.722;2023-01-19T14:37:11;1.00;;;0.90;;
62179;SDS011;48172;53.374;10.722;2023-01-19T14:39:44;1.23;;;1.02;;
62179;SDS011;48172;53.374;10.722;2023-01-19T14:42:17;1.25;;;0.90;;
62179;SDS011;48172;53.374;10.722;2023-01-19T14:44:48;0.82;;;0.82;;
62179;SDS011;48172;53.374;10.722;2023-01-19T14:47:20;0.80;;;0.80;;
62179;SDS011;48172;53.374;10.722;2023-01-19T14:49:52;1.25;;;1.00;;
62179;SDS011;48172;53.374;10.722;2023-01-19T14:52:28;1.17;;;1.00;;
62179;SDS011;48172;53.374;10.722;2023-01-19T14:54:58;0.90;;;0.90;;
62179;SDS011;48172;53.374;10.722;2023-01-19T14:57:28;1.20;;;1.10;;
62179;SDS011;48172;53.374;10.722;2023-01-19T14:59:55;0.82;;;0.82;;
62179;SDS011;48172;53.374;10.722;2023-01-19T15:02:21;1.10;;;1.00;;
62179;SDS011;48172;53.374;10.722;2023-01-19T15:04:48;0.85;;;0.80;;
62179;SDS011;48172;53.374;10.722;2023-01-19T15:07:19;0.93;;;0.90;;
62179;SDS011;48172;53.374;10.722;2023-01-19T15:09:48;1.10;;;1.00;;
62179;SDS011;48172;53.374;10.722;2023-01-19T15:12:16;0.95;;;0.90;;
62179;SDS011;48172;53.374;10.722;2023-01-19T15:14:43;0.90;;;0.88;;
62179;SDS011;48172;53.374;10.722;2023-01-19T15:17:17;1.10;;;1.00;;
62179;SDS011;48172;53.374;10.722;2023-01-19T15:19:52;1.20;;;1.05;;
62179;SDS011;48172;53.374;10.722;2023-01-19T15:22:20;0.93;;;0.90;;
62179;SDS011;48172;53.374;10.722;2023-01-19T15:24:50;1.10;;;1.00;;
62179;SDS011;48172;53.374;10.722;2023-01-19T15:27:16;1.00;;;0.88;;
62179;SDS011;48172;53.374;10.722;2023-01-19T15:29:43;1.10;;;1.00;;
62179;SDS011;48172;53.374;10.722;2023-01-19T15:32:12;1.20;;;0.80;;
62179;SDS011;48172;53.374;10.722;2023-01-19T15:34:39;1.08;;;0.98;;
62179;SDS011;48172;53.374;10.722;2023-01-19T15:37:06;1.08;;;0.98;;
62179;SDS011;48172;53.374;10.722;2023-01-19T15:39:33;1.15;;;1.05;;
62179;SDS011;48172;53.374;10.722;2023-01-19T15:42:00;1.15;;;1.05;;
62179;SDS011;48172;53.374;10.722;2023-01-19T15:44:27;0.90;;;0.90;;
62179;SDS011;48172;53.374;10.722;2023-01-19T15:46:54;1.35;;;1.00;;
62179;SDS011;48172;53.374;10.722;2023-01-19T15:49:22;1.15;;;1.05;;
62179;SDS011;48172;53.374;10.722;2023-01-19T15:51:49;1.10;;;1.00;;
62179;SDS011;48172;53.374;10.722;2023-01-19T15:54:15;1.23;;;1.00;;
62179;SDS011;48172;53.374;10.722;2023-01-19T15:56:43;1.40;;;1.17;;
62179;SDS011;48172;53.374;10.722;2023-01-19T15:59:10;1.02;;;0.75;;
62179;SDS011;48172;53.374;10.722;2023-01-19T16:01:36;1.02;;;0.93;;
62179;SDS011;48172;53.374;10.722;2023-01-19T16:04:05;1.20;;;1.10;;
62179;SDS011;48172;53.374;10.722;2023-01-19T16:06:33;0.95;;;0.85;;
62179;SDS011;48172;53.374;10.722;2023-01-19T16:08:59;1.00;;;0.90;;
62179;SDS011;48172;53.374;10.722;2023-01-19T16:11:27;1.10;;;1.00;;
62179;SDS011;48172;53.374;10.722;2023-01-19T16:13:59;0.80;;;0.80;;
62179;SDS011;48172;53.374;10.722;2023-01-19T16:16:26;1.15;;;0.98;;
62179;SDS011;48172;53.374;10.722;2023-01-19T16:18:53;1.10;;;1.00;;
62179;SDS011;48172;53.374;10.722;2023-01-19T16:21:20;1.65;;;1.10;;
62179;SDS011;48172;53.374;10.722;2023-01-19T16:23:47;1.85;;;1.20;;
62179;SDS011;48172;53.374;10.722;2023-01-19T16:26:30;1.02;;;0.93;;
62179;SDS011;48172;53.374;10.722;2023-01-19T16:29:00;2.05;;;1.10;;
62179;SDS011;48172;53.374;10.722;2023-01-19T16:31:33;1.05;;;0.95;;
62179;SDS011;48172;53.374;10.722;2023-01-19T16:34:00;1.45;;;1.10;;
62179;SDS011;48172;53.374;10.722;2023-01-19T16:36:27;1.10;;;1.00;;
62179;SDS011;48172;53.374;10.722;2023-01-19T16:38:59;1.33;;;1.13;;